Pagrindinis puslapis
METAR-TAF:

METAR-TAF

Oro uostai :

Sørkjosen, Norvegija

platuma: 69-47N, ilguma: 020-58E, Aukštis: 0 m

Dabartinis oras

Ataskaita buvo paskelbta 24 minutes, ne 22:20 UTC
Vėjas 10 kt iš Pietryčių
Temperatūra 24°C
Drėgmė 57%
Slėgis 1006 hPa
Matomumas 10 km arba daugiau

METAR: ENSR 022220Z AUTO 14010KT 9999 NCD 24/15 Q1006 RMK WIND RWY32 14008KT WIND 1118FT 15009KT

Laikas: 00:44 (22:44 UTC)


TAF: trūkstamas

Orai ataskaitas ir orų prognozės (METAR, TAF).

turimą stotys yra geltonos ir raudonos taškus žemėlapyje.

Perkelti pele per norėdami pamatyti stoties vardą.

Tada spustelėkite, norėdami matyti oro stebėjimo ir prognozės.

Norėdami pakeisti žemėlapį: spustelėkite ant žalios mygtukų su juodo kryžiaus žemyn,; žalią mygtuką su brūkšneliu, jei norite nutolinti; arba žalių rodyklių gretimoms žemėlapius.


METAR-TAF: